Bookmark and Share
Track history (hours):
 

Raylah

Last reported at 2012-Jul-28 03:29 UTC. Time now 2014-Apr-25 05:51 UTC.
Position S 12°07' E 130°24'.
Warning: this ship's position is years out of date!

Length 13 m.

Type: Pleasure craft. MMSI: 235020483.

NotesDate/timePositionNaut miles runAvg speedWind from/ knotsBaromVisibWave heightAir tempDewpointWater temp
2012-Jul-28 03:29S 12°07' E 130°24'6 5.5
2012-Jul-28 02:28S 12°09' E 130°29'5 5.9
2012-Jul-28 01:33S 12°12' E 130°34'6 5.5
2012-Jul-28 00:33S 12°15' E 130°38'5 5.2
2012-Jul-27 23:33S 12°18' E 130°43'5 4.5
2012-Jul-27 22:33S 12°23' E 130°44'6 5.9
2012-Jul-27 21:32S 12°27' E 130°48'  
2012-Jul-25 11:25S 12°27' E 130°49'0 0.0
2012-Jul-25 10:34S 12°27' E 130°49'0 0.0
2012-Jul-25 09:25S 12°27' E 130°49'0 0.0
2012-Jul-25 08:28S 12°27' E 130°49'0 0.0
2012-Jul-25 07:28S 12°27' E 130°49'0 0.0
2012-Jul-25 06:31S 12°27' E 130°49'0 0.0
2012-Jul-25 05:31S 12°27' E 130°49'0 0.2
2012-Jul-25 04:36S 12°27' E 130°49'2 2.0
2012-Jul-25 03:25S 12°26' E 130°52'0 0.0
2012-Jul-25 02:29S 12°26' E 130°52'0 0.0
2012-Jul-23 23:33S 12°26' E 130°52'0 0.0
2012-Jul-23 22:33S 12°26' E 130°52'0 0.0
2012-Jul-23 21:33S 12°26' E 130°52'0 0.0
2012-Jul-23 20:33S 12°26' E 130°52'0 0.0
2012-Jul-23 19:24S 12°26' E 130°52'0 0.0
2012-Jul-23 18:27S 12°26' E 130°52'0 0.0
2012-Jul-23 16:27S 12°26' E 130°52'0 0.0
2012-Jul-23 15:30S 12°26' E 130°52'0 0.0
2012-Jul-23 14:30S 12°26' E 130°52'0 0.0
2012-Jul-23 13:33S 12°26' E 130°52'0 0.0
2012-Jul-23 12:33S 12°26' E 130°52'0 0.0
2012-Jul-23 11:33S 12°26' E 130°52'0 0.0
2012-Jul-23 10:36S 12°26' E 130°52'0 0.0
2012-Jul-23 09:33S 12°26' E 130°52'0 0.0
2012-Jul-23 08:33S 12°26' E 130°52'0 0.0
2012-Jul-23 07:24S 12°26' E 130°52'0 0.0
2012-Jul-23 06:24S 12°26' E 130°52'0 0.0
2012-Jul-23 05:27S 12°26' E 130°52'0 0.0
2012-Jul-23 04:27S 12°26' E 130°52'0 0.0
2012-Jul-23 03:30S 12°26' E 130°52'0 0.0
2012-Jul-23 02:30S 12°26' E 130°52'0 0.0
2012-Jul-21 04:29S 12°26' E 130°52'0 0.0
2012-Jul-21 03:29S 12°26' E 130°52'0 0.0
2012-Jul-21 02:32S 12°26' E 130°52'0 0.0
2012-Jul-21 01:32S 12°26' E 130°52'0 0.0
2012-Jul-21 00:32S 12°26' E 130°52'0 0.0
2012-Jul-20 23:32S 12°26' E 130°52'0 0.0
2012-Jul-20 22:32S 12°26' E 130°52'0 0.0
2012-Jul-20 21:32S 12°26' E 130°52'0 0.0
2012-Jul-20 19:26S 12°26' E 130°52'0 0.0
2012-Jul-20 18:26S 12°26' E 130°52'0 0.0
2012-Jul-20 17:26S 12°26' E 130°52'0 0.0
2012-Jul-20 16:29S 12°26' E 130°52'0 0.0
2012-Jul-20 15:29S 12°26' E 130°52'0 0.0
2012-Jul-20 14:32S 12°26' E 130°52'0 0.0
2012-Jul-20 13:32S 12°26' E 130°52'0 0.0
2012-Jul-20 12:32S 12°26' E 130°52'0 0.0
2012-Jul-20 11:32S 12°26' E 130°52'0 0.0
2012-Jul-20 10:35S 12°26' E 130°52'0 0.0
2012-Jul-20 09:32S 12°26' E 130°52'0 0.0
2012-Jul-20 07:26S 12°26' E 130°52'0 0.0
2012-Jul-20 06:26S 12°26' E 130°52'0 0.0
2012-Jul-20 05:26S 12°26' E 130°52'0 0.0
2012-Jul-20 04:29S 12°26' E 130°52'0 0.0
2012-Jul-20 03:29S 12°26' E 130°52'0 0.0
2012-Jul-20 02:32S 12°26' E 130°52'0 0.0
2012-Jul-20 01:32S 12°26' E 130°52'0 0.0
2012-Jul-20 00:32S 12°26' E 130°52'0 0.0
2012-Jul-19 23:32S 12°26' E 130°52'  

Dump ship's entire track history

sailing weather and tide predictions

Raylah — MFYK2 — position and weather